Time;durP1;ratioP1;P1;durP2;ratioP2;P2;SDS_P1;SDS_P2;PMS_P1;PMS_P2;Temp;Humidity;BMP_temperature;BMP_pressure;BME280_temperature;BME280_humidity;BME280_pressure;Samples;Min_cycle;Max_cycle;Signal;HPM_P1;HPM_P2
2022/09/07 00:00:32;;;;;;;25.75;11.22;;;;;;;2.03;94.02;100185.63;1714581;82;21558;-74
2022/09/07 00:03:03;;;;;;;21.37;10.60;;;;;;;2.01;94.19;100183.69;1717619;82;21771;-73
2022/09/07 00:05:32;;;;;;;33.55;12.30;;;;;;;1.98;94.16;100179.59;1718757;82;20922;-73
2022/09/07 00:08:01;;;;;;;26.42;10.55;;;;;;;1.95;94.25;100179.54;1720623;82;21044;-73
2022/09/07 00:10:30;;;;;;;25.35;11.12;;;;;;;1.94;94.25;100179.78;1720016;82;21004;-74
2022/09/07 00:12:58;;;;;;;23.12;10.85;;;;;;;1.92;94.32;100177.32;1713042;82;21552;-74
2022/09/07 00:15:25;;;;;;;27.52;11.63;;;;;;;1.91;94.37;100174.33;1716099;82;21201;-76
2022/09/07 00:17:56;;;;;;;24.52;11.43;;;;;;;1.90;94.38;100176.74;1717208;82;21007;-77
2022/09/07 00:20:29;;;;;;;34.53;12.30;;;;;;;1.88;94.44;100180.22;1718796;82;20985;-77
2022/09/07 00:23:01;;;;;;;32.50;12.33;;;;;;;1.87;94.53;100179.94;1719061;82;21737;-77
2022/09/07 00:25:30;;;;;;;25.43;11.10;;;;;;;1.86;94.71;100173.41;1718634;82;21164;-76
2022/09/07 00:28:00;;;;;;;30.65;11.53;;;;;;;1.80;94.92;100173.02;1714645;82;21488;-77
2022/09/07 00:30:27;;;;;;;26.40;11.43;;;;;;;1.75;95.25;100173.75;1715466;83;21036;-75
2022/09/07 00:32:55;;;;;;;26.97;11.33;;;;;;;1.72;95.34;100174.80;1719331;82;21453;-75
2022/09/07 00:35:25;;;;;;;20.60;10.78;;;;;;;1.66;95.50;100168.47;1718109;82;21009;-76
2022/09/07 00:37:56;;;;;;;23.22;10.75;;;;;;;1.63;95.68;100164.89;1717140;82;21005;-76
2022/09/07 00:40:25;;;;;;;24.67;10.93;;;;;;;1.60;95.75;100163.49;1717948;82;21878;-76
2022/09/07 00:42:57;;;;;;;25.37;11.03;;;;;;;1.58;95.76;100165.62;1717003;82;21119;-74
2022/09/07 00:45:26;;;;;;;27.07;11.10;;;;;;;1.57;95.77;100167.21;1718237;82;20981;-74
2022/09/07 00:48:20;;;;;;;31.57;11.95;;;;;;;1.54;95.66;100177.16;1714670;82;20965;-74
2022/09/07 00:50:54;;;;;;;26.95;10.82;;;;;;;1.53;95.80;100170.11;1717081;82;21004;-74
2022/09/07 00:53:33;;;;;;;24.45;11.15;;;;;;;1.51;95.88;100167.64;1718851;82;21212;-73
2022/09/07 00:56:06;;;;;;;26.20;11.05;;;;;;;1.50;95.96;100170.06;1716601;82;20945;-73
2022/09/07 00:58:42;;;;;;;22.77;11.00;;;;;;;1.48;95.89;100166.77;1707810;83;20847;-73
2022/09/07 01:01:16;;;;;;;24.65;10.88;;;;;;;1.46;95.85;100164.84;1719492;82;20858;-73
2022/09/07 01:03:50;;;;;;;26.12;11.00;;;;;;;1.46;95.87;100164.02;1717864;82;21516;-73
2022/09/07 01:06:22;;;;;;;26.75;11.78;;;;;;;1.45;95.81;100163.20;1716882;82;21834;-75
2022/09/07 01:08:51;;;;;;;23.20;11.38;;;;;;;1.44;95.73;100160.73;1710329;82;20984;-76
2022/09/07 01:11:20;;;;;;;26.60;11.08;;;;;;;1.42;95.66;100156.91;1718790;82;21567;-77
2022/09/07 01:13:51;;;;;;;24.67;10.65;;;;;;;1.41;95.75;100155.80;1713429;82;21020;-78
2022/09/07 01:16:48;;;;;;;25.88;10.50;;;;;;;1.38;95.76;100153.05;1715415;82;20928;-77
2022/09/07 01:19:56;;;;;;;24.63;10.90;;;;;;;1.36;95.85;100152.47;1728205;82;21992;-78
2022/09/07 01:22:48;;;;;;;22.55;10.75;;;;;;;1.35;95.93;100146.77;1721032;82;21127;-76
2022/09/07 01:25:54;;;;;;;22.48;10.68;;;;;;;1.31;95.83;100146.95;1718759;82;21111;-78
2022/09/07 01:28:32;;;;;;;25.68;11.38;;;;;;;1.28;95.85;100148.25;1713719;82;21452;-78
2022/09/07 01:31:09;;;;;;;27.65;12.25;;;;;;;1.25;95.92;100148.73;1718588;82;20965;-78
2022/09/07 01:33:45;;;;;;;23.87;10.72;;;;;;;1.23;95.92;100146.80;1715951;82;21463;-79
2022/09/07 01:36:56;;;;;;;26.00;10.35;;;;;;;1.21;95.91;100138.10;1710470;82;21067;-78
2022/09/07 01:39:34;;;;;;;25.82;10.58;;;;;;;1.20;95.89;100147.28;1719271;82;21418;-72
2022/09/07 01:42:06;;;;;;;24.12;10.65;;;;;;;1.20;95.90;100147.28;1728025;81;21112;-72
2022/09/07 01:44:58;;;;;;;26.02;10.38;;;;;;;1.18;95.90;100143.98;1721000;82;21112;-72
2022/09/07 01:47:41;;;;;;;22.27;10.68;;;;;;;1.15;95.87;100137.73;1718380;82;21141;-75
2022/09/07 01:50:19;;;;;;;19.52;10.05;;;;;;;1.11;95.97;100140.63;1713671;82;21009;-75
2022/09/07 01:53:05;;;;;;;27.85;10.90;;;;;;;1.06;96.07;100140.52;1717481;82;21044;-77
2022/09/07 01:55:58;;;;;;;26.05;11.22;;;;;;;0.99;96.06;100135.78;1721648;82;20937;-77
2022/09/07 01:58:46;;;;;;;20.13;10.30;;;;;;;0.96;96.13;100138.95;1720430;82;21028;-76
2022/09/07 02:01:31;;;;;;;21.15;10.35;;;;;;;0.91;96.10;100136.97;1720602;82;21168;-76
2022/09/07 02:04:24;;;;;;;19.67;10.28;;;;;;;0.89;96.01;100131.51;1716313;82;21512;-74
2022/09/07 02:07:11;;;;;;;26.80;10.63;;;;;;;0.84;96.05;100134.92;1644144;86;21065;-74
2022/09/07 02:09:52;;;;;;;24.25;10.70;;;;;;;0.82;96.06;100130.81;1706862;82;21547;-74
2022/09/07 02:12:38;;;;;;;20.75;10.13;;;;;;;0.82;96.13;100134.87;1718238;82;20922;-73
2022/09/07 02:15:10;;;;;;;22.95;10.43;;;;;;;0.80;96.21;100127.00;1720847;82;21737;-71
2022/09/07 02:17:50;;;;;;;25.60;10.48;;;;;;;0.79;96.15;100126.70;1718395;82;21234;-72
2022/09/07 02:20:28;;;;;;;23.25;10.50;;;;;;;0.78;96.04;100128.30;1720536;82;20948;-71
2022/09/07 02:22:59;;;;;;;21.55;10.78;;;;;;;0.75;96.04;100122.02;1713384;83;20997;-73
2022/09/07 02:25:32;;;;;;;20.60;10.48;;;;;;;0.74;96.11;100125.24;1717303;82;21069;-71
2022/09/07 02:28:05;;;;;;;23.77;10.68;;;;;;;0.73;96.28;100122.25;1719430;82;21544;-72
2022/09/07 02:30:36;;;;;;;24.63;10.72;;;;;;;0.71;96.37;100122.19;1704142;82;21107;-72
2022/09/07 02:33:04;;;;;;;18.87;9.88;;;;;;;0.67;96.39;100117.79;1720677;82;21076;-73
2022/09/07 02:35:31;;;;;;;22.07;10.43;;;;;;;0.66;96.23;100119.67;1721671;82;21040;-73
2022/09/07 02:38:04;;;;;;;19.50;9.88;;;;;;;0.61;96.18;100115.50;1689300;82;20996;-73
2022/09/07 02:40:42;;;;;;;24.45;10.38;;;;;;;0.60;96.47;100112.51;1725842;82;21128;-74
2022/09/07 02:43:11;;;;;;;20.17;10.38;;;;;;;0.60;96.62;100113.86;1718270;82;20913;-75
2022/09/07 02:46:10;;;;;;;22.05;8.58;;;;;;;0.57;96.67;100113.02;1720167;82;21096;-75
2022/09/07 02:48:57;;;;;;;17.42;10.28;;;;;;;0.56;96.62;100107.31;1720724;82;20973;-77
2022/09/07 02:51:54;;;;;;;26.50;9.80;;;;;;;0.56;96.78;100110.55;1692666;84;20973;-75
2022/09/07 02:54:44;;;;;;;26.27;11.12;;;;;;;0.55;97.05;100109.73;1698133;83;21155;-75
2022/09/07 02:57:29;;;;;;;20.85;10.53;;;;;;;0.53;96.95;100112.38;1691042;83;21474;-75
2022/09/07 03:00:10;;;;;;;21.10;9.83;;;;;;;0.49;96.97;100109.84;1691606;83;21193;-76
2022/09/07 03:02:57;;;;;;;21.52;9.68;;;;;;;0.47;97.04;100105.20;1664449;84;20996;-75
2022/09/07 03:05:49;;;;;;;21.33;10.40;;;;;;;0.46;97.05;100107.62;1691430;83;21021;-75
2022/09/07 03:08:33;;;;;;;18.05;9.50;;;;;;;0.46;97.12;100113.02;1712853;82;20894;-74
2022/09/07 03:11:06;;;;;;;22.55;9.85;;;;;;;0.46;97.11;100104.39;1703876;80;21523;-78
2022/09/07 03:13:35;;;;;;;22.80;10.05;;;;;;;0.44;97.01;100098.92;1718927;82;21072;-77
2022/09/07 03:16:06;;;;;;;27.30;10.53;;;;;;;0.42;96.88;100105.91;1682128;83;21097;-74
2022/09/07 03:18:35;;;;;;;22.62;10.00;;;;;;;0.43;97.09;100107.56;1684999;83;21073;-74
2022/09/07 03:21:04;;;;;;;42.38;11.50;;;;;;;0.43;97.12;100113.49;1675292;84;21289;-74
2022/09/07 03:23:37;;;;;;;37.93;9.43;;;;;;;0.42;97.03;100111.31;1690683;82;21620;-74
2022/09/07 03:26:06;;;;;;;36.83;10.70;;;;;;;0.40;97.10;100107.20;1720008;82;26069;-73
2022/09/07 03:28:37;;;;;;;35.75;11.75;;;;;;;0.38;97.05;100106.09;1722533;82;21610;-73
2022/09/07 03:31:04;;;;;;;27.82;9.93;;;;;;;0.36;97.16;100109.55;1717313;82;21053;-74
2022/09/07 03:33:36;;;;;;;25.10;10.13;;;;;;;0.36;97.29;100107.38;1750128;80;21437;-74
2022/09/07 03:36:05;;;;;;;26.40;9.65;;;;;;;0.36;97.42;100106.86;1716579;82;21047;-74
2022/09/07 03:38:34;;;;;;;;;;;;;;;0.38;97.49;100104.74;1720711;82;21005;-75
2022/09/07 03:41:05;;;;;;;35.55;9.85;;;;;;;0.40;97.52;100109.91;1681747;83;20436;-75
2022/09/07 03:43:36;;;;;;;29.48;9.58;;;;;;;0.41;97.65;100111.02;1654939;85;21548;-74
2022/09/07 03:46:09;;;;;;;27.98;10.63;;;;;;;0.44;97.75;100104.33;1682096;84;21152;-74
2022/09/07 03:48:38;;;;;;;35.75;10.70;;;;;;;0.46;97.80;100108.97;1681150;84;20954;-77
2022/09/07 03:51:07;;;;;;;32.90;10.03;;;;;;;0.47;97.81;100108.73;1682238;84;20956;-78
2022/09/07 03:53:40;;;;;;;19.92;8.93;;;;;;;0.50;97.93;100104.73;1662697;85;21474;-78
2022/09/07 03:56:12;;;;;;;29.10;10.58;;;;;;;0.54;98.03;100109.96;1661500;85;21065;-79
2022/09/07 03:58:47;;;;;;;23.10;9.48;;;;;;;0.57;98.14;100111.66;1703844;83;21016;-79
2022/09/07 04:01:21;;;;;;;26.02;9.53;;;;;;;0.63;98.41;100117.97;1719091;82;21555;-79
2022/09/07 04:03:53;;;;;;;27.90;9.45;;;;;;;0.69;98.58;100118.37;1764306;80;21452;-76
2022/09/07 04:06:25;;;;;;;25.08;9.58;;;;;;;0.77;98.70;100115.84;1758927;80;20889;-84
2022/09/07 04:09:07;;;;;;;24.98;9.58;;;;;;;0.83;98.79;100119.77;1719542;82;21214;-83
2022/09/07 04:11:36;;;;;;;25.40;9.78;;;;;;;0.91;99.09;100118.58;1719057;82;21136;-81
2022/09/07 04:14:03;;;;;;;22.50;9.40;;;;;;;0.99;99.35;100112.80;1681349;82;20930;-77
2022/09/07 04:16:33;;;;;;;23.25;10.20;;;;;;;1.08;99.43;100119.47;1714720;82;20953;-78
2022/09/07 04:19:02;;;;;;;31.85;10.68;;;;;;;1.18;99.72;100122.35;1720016;82;20957;-71
2022/09/07 04:21:34;;;;;;;35.98;9.70;;;;;;;1.28;100.00;100117.15;1720737;82;21063;-71
2022/09/07 04:24:04;;;;;;;25.00;9.43;;;;;;;1.42;100.00;100118.22;1715586;80;21464;-73
2022/09/07 04:26:34;;;;;;;25.57;9.33;;;;;;;1.57;100.00;100114.44;1718741;81;21032;-75
2022/09/07 04:29:08;;;;;;;18.20;9.75;;;;;;;1.71;100.00;100113.61;1761590;79;20924;-76
2022/09/07 04:31:42;;;;;;;24.30;9.93;;;;;;;1.85;100.00;100117.09;1714783;82;21008;-76
2022/09/07 04:34:10;;;;;;;25.88;9.48;;;;;;;2.00;100.00;100116.53;1718617;82;20941;-75
2022/09/07 04:36:39;;;;;;;38.00;11.05;;;;;;;2.17;100.00;100118.70;1721352;82;21173;-78
2022/09/07 04:39:13;;;;;;;28.57;10.23;;;;;;;2.33;100.00;100122.45;1711858;82;20897;-77
2022/09/07 04:41:43;;;;;;;34.78;10.82;;;;;;;2.50;100.00;100120.55;1718488;82;21543;-78
2022/09/07 04:44:10;;;;;;;41.15;10.60;;;;;;;2.68;100.00;100115.37;1719426;82;21532;-83
2022/09/07 04:46:37;;;;;;;30.08;11.30;;;;;;;2.87;100.00;100124.05;1717709;82;20997;-84
2022/09/07 04:49:08;;;;;;;31.93;11.73;;;;;;;3.07;100.00;100119.39;1720286;82;21568;-79
2022/09/07 04:51:35;;;;;;;31.07;13.00;;;;;;;3.25;100.00;100123.14;1710975;82;21060;-78
2022/09/07 04:54:05;;;;;;;28.87;11.53;;;;;;;3.46;100.00;100120.12;1713677;82;21586;-74
2022/09/07 04:56:38;;;;;;;28.90;13.48;;;;;;;3.63;100.00;100116.75;1702702;83;21242;-73
2022/09/07 04:59:09;;;;;;;46.77;11.30;;;;;;;3.86;100.00;100121.05;1715243;82;21048;-72
2022/09/07 05:01:40;;;;;;;31.45;11.70;;;;;;;4.35;100.00;100116.27;1709487;82;21083;-78
2022/09/07 05:04:06;;;;;;;23.05;9.60;;;;;;;4.35;100.00;100116.27;1719172;82;21091;-76
2022/09/07 05:06:35;;;;;;;26.93;9.75;;;;;;;4.59;100.00;100116.70;1718907;82;21061;-71
2022/09/07 05:09:04;;;;;;;27.25;9.98;;;;;;;4.86;100.00;100119.28;1719831;81;20910;-78
2022/09/07 05:11:33;;;;;;;27.77;9.55;;;;;;;5.13;100.00;100113.70;1722197;82;20968;-73
2022/09/07 05:14:02;;;;;;;20.60;9.55;;;;;;;5.40;100.00;100108.06;1718928;82;21531;-81
2022/09/07 05:16:31;;;;;;;20.85;9.40;;;;;;;5.69;100.00;100111.94;1716577;82;20976;-80
2022/09/07 05:19:01;;;;;;;20.92;9.70;;;;;;;5.99;99.07;100108.45;1721547;81;21487;-84
2022/09/07 05:21:32;;;;;;;19.50;9.43;;;;;;;6.23;98.06;100106.00;1719925;82;21072;-75
2022/09/07 05:24:01;;;;;;;15.85;8.70;;;;;;;6.46;96.79;100110.86;1720265;81;21534;-75
2022/09/07 05:26:30;;;;;;;20.85;8.15;;;;;;;6.69;95.14;100119.55;1719146;81;21161;-79
2022/09/07 05:29:03;;;;;;;19.77;9.40;;;;;;;6.90;93.32;100112.41;1717744;82;21036;-78
2022/09/07 05:31:31;;;;;;;18.77;9.33;;;;;;;7.13;91.65;100104.11;1717044;82;21496;-79
2022/09/07 05:34:04;;;;;;;18.35;9.75;;;;;;;7.37;89.62;100107.56;1715590;82;21092;-72
2022/09/07 05:36:35;;;;;;;19.55;9.63;;;;;;;7.59;87.81;100107.41;1717799;82;21116;-78
2022/09/07 05:39:04;;;;;;;21.95;10.03;;;;;;;7.81;87.59;100095.25;1717237;81;22490;-80
2022/09/07 05:41:36;;;;;;;21.75;9.78;;;;;;;8.00;86.49;100096.77;1716163;81;21504;-80
2022/09/07 05:44:06;;;;;;;20.50;9.78;;;;;;;8.19;85.77;100099.04;1720764;82;20936;-81
2022/09/07 05:46:41;;;;;;;16.57;8.48;;;;;;;8.39;83.18;100095.34;1733939;81;21571;-75
2022/09/07 05:49:11;;;;;;;19.17;8.73;;;;;;;8.59;81.60;100097.34;1761789;79;21421;-88
2022/09/07 05:51:40;;;;;;;19.92;9.30;;;;;;;8.83;79.54;100093.78;1722868;81;21237;-90
2022/09/07 05:54:12;;;;;;;15.68;8.65;;;;;;;9.10;78.47;100096.75;1716026;81;20998;-80
2022/09/07 05:56:44;;;;;;;20.90;8.83;;;;;;;9.31;74.62;100100.02;1715189;81;25898;-84
2022/09/07 05:59:12;;;;;;;19.92;9.48;;;;;;;9.42;72.13;100094.67;1717223;82;21100;-85
2022/09/07 06:01:41;;;;;;;20.52;8.93;;;;;;;9.51;71.33;100098.94;1718324;81;21073;-79
2022/09/07 06:04:10;;;;;;;21.50;9.05;;;;;;;9.57;71.34;100100.50;1715900;82;21780;-77
2022/09/07 06:06:39;;;;;;;18.60;8.65;;;;;;;9.69;71.93;100106.36;1719238;82;21070;-84
2022/09/07 06:09:06;;;;;;;21.17;10.38;;;;;;;9.83;70.98;100105.84;1708399;81;21478;-85
2022/09/07 06:11:35;;;;;;;17.50;8.63;;;;;;;9.97;69.69;100110.59;1718057;82;21032;-79
2022/09/07 06:14:06;;;;;;;15.18;8.58;;;;;;;10.07;69.00;100111.80;1711108;82;20947;-75
2022/09/07 06:16:36;;;;;;;22.22;8.98;;;;;;;10.14;68.37;100116.36;1722011;81;21775;-79
2022/09/07 06:19:06;;;;;;;19.75;9.03;;;;;;;10.22;68.46;100111.03;1717740;82;20963;-75
2022/09/07 06:21:40;;;;;;;18.00;9.43;;;;;;;10.35;67.89;100111.38;1709687;82;20914;-81
2022/09/07 06:24:08;;;;;;;19.10;8.65;;;;;;;10.48;68.73;100121.00;1720449;82;21089;-74
2022/09/07 06:26:35;;;;;;;14.75;7.53;;;;;;;10.66;68.43;100108.89;1698133;82;21060;-75
2022/09/07 06:29:03;;;;;;;24.00;9.15;;;;;;;10.82;67.11;100114.36;1720298;82;21104;-75
2022/09/07 06:31:34;;;;;;;18.50;9.68;;;;;;;10.98;66.62;100115.67;1718396;82;21012;-75
2022/09/07 06:34:05;;;;;;;29.55;12.63;;;;;;;11.11;64.88;100119.54;1717862;82;21634;-76
2022/09/07 06:36:32;;;;;;;30.35;13.45;;;;;;;11.25;64.86;100110.73;1715364;82;20931;-73
2022/09/07 06:39:07;;;;;;;26.37;11.78;;;;;;;11.38;64.01;100109.09;1717007;81;45586;-72
2022/09/07 06:41:37;;;;;;;32.03;10.53;;;;;;;11.50;62.82;100114.89;1719983;82;21194;-73
2022/09/07 06:44:05;;;;;;;20.88;9.58;;;;;;;11.64;61.96;100112.90;1715719;82;21302;-75
2022/09/07 06:46:32;;;;;;;23.98;9.13;;;;;;;11.76;60.86;100111.80;1716163;82;21073;-72
2022/09/07 06:49:03;;;;;;;18.50;8.08;;;;;;;11.88;61.39;100113.48;1720466;82;21068;-73
2022/09/07 06:51:31;;;;;;;28.47;9.17;;;;;;;12.16;59.84;100113.36;1718430;82;21004;-73
2022/09/07 06:54:00;;;;;;;17.35;9.43;;;;;;;12.16;59.84;100113.36;1719503;81;21459;-85
2022/09/07 06:56:28;;;;;;;22.27;10.18;;;;;;;12.33;59.09;100113.48;1719396;82;21643;-72
2022/09/07 06:59:00;;;;;;;31.07;9.85;;;;;;;12.48;58.06;100117.23;1720220;81;21108;-75
2022/09/07 07:01:32;;;;;;;17.87;9.48;;;;;;;12.58;57.20;100118.09;1713073;81;20958;-77
2022/09/07 07:04:00;;;;;;;14.47;7.80;;;;;;;12.68;57.86;100117.27;1718885;82;21088;-75
2022/09/07 07:06:36;;;;;;;31.77;9.10;;;;;;;12.85;57.16;100115.14;1712222;82;21233;-76
2022/09/07 07:09:14;;;;;;;18.10;8.60;;;;;;;13.01;56.42;100110.84;1689948;81;20941;-79
2022/09/07 07:11:47;;;;;;;12.07;7.58;;;;;;;13.19;55.17;100113.94;1720214;81;21028;-79
2022/09/07 07:14:20;;;;;;;14.98;8.30;;;;;;;13.33;54.26;100113.80;1726416;82;20946;-75
2022/09/07 07:16:54;;;;;;;16.48;8.50;;;;;;;13.43;53.46;100111.30;1725012;81;20958;-74
2022/09/07 07:19:29;;;;;;;19.37;9.13;;;;;;;13.54;53.76;100107.92;1718335;82;21559;-75
2022/09/07 07:22:04;;;;;;;16.87;7.78;;;;;;;13.72;53.67;100109.34;1696291;81;20977;-75
2022/09/07 07:24:35;;;;;;;14.80;8.00;;;;;;;13.93;50.41;100117.20;1695028;82;20952;-77
2022/09/07 07:27:07;;;;;;;13.78;7.12;;;;;;;14.07;50.78;100114.28;1702412;82;20950;-79
2022/09/07 07:29:36;;;;;;;12.55;6.28;;;;;;;14.26;49.92;100107.05;1715618;81;21002;-79
2022/09/07 07:32:03;;;;;;;11.95;6.20;;;;;;;14.38;49.25;100106.62;1721311;82;21605;-77
2022/09/07 07:34:30;;;;;;;12.18;5.97;;;;;;;14.48;48.59;100102.14;1712894;81;21072;-75
2022/09/07 07:37:00;;;;;;;13.68;6.28;;;;;;;14.62;48.15;100110.81;1715546;82;20950;-76
2022/09/07 07:39:31;;;;;;;14.30;6.85;;;;;;;14.70;46.90;100109.41;1719593;82;20945;-77
2022/09/07 07:42:03;;;;;;;15.40;6.75;;;;;;;14.76;47.52;100110.04;1718367;82;20918;-78
2022/09/07 07:44:39;;;;;;;12.65;6.08;;;;;;;15.00;47.32;100102.56;1720793;82;21135;-81
2022/09/07 07:47:05;;;;;;;11.68;5.60;;;;;;;15.34;45.62;100100.17;1720022;82;21024;-86
2022/09/07 07:49:33;;;;;;;11.30;5.60;;;;;;;15.64;43.90;100101.79;1720724;82;21020;-83
2022/09/07 07:52:07;;;;;;;9.48;4.90;;;;;;;15.93;42.13;100096.77;1754954;79;20902;-82
2022/09/07 07:54:36;;;;;;;9.20;5.40;;;;;;;16.32;41.91;100099.58;1717830;82;20943;-82
2022/09/07 07:57:06;;;;;;;10.43;5.37;;;;;;;16.90;39.56;100089.34;1722102;81;21243;-80
2022/09/07 07:59:40;;;;;;;;;;;;;;;17.37;38.52;100086.10;1725818;82;21099;-86
2022/09/07 08:02:05;;;;;;;9.98;4.83;;;;;;;17.54;37.39;100087.25;1712986;82;20442;-72
2022/09/07 08:04:35;;;;;;;8.98;4.45;;;;;;;17.38;36.16;100084.37;1706946;82;21024;-77
2022/09/07 08:07:09;;;;;;;8.35;4.40;;;;;;;17.43;38.72;100081.36;1712012;81;20914;-74
2022/09/07 08:09:36;;;;;;;7.90;4.00;;;;;;;17.95;36.30;100086.70;1708755;82;21593;-75
2022/09/07 08:12:04;;;;;;;8.13;3.92;;;;;;;18.36;35.38;100079.95;1712274;83;21059;-76
2022/09/07 08:14:40;;;;;;;4.90;2.83;;;;;;;18.70;34.93;100072.34;1711987;82;21089;-75
2022/09/07 08:17:10;;;;;;;6.55;2.55;;;;;;;18.96;32.13;100070.44;1712617;82;20945;-79
2022/09/07 08:19:42;;;;;;;8.23;3.08;;;;;;;18.94;32.94;100075.55;1712848;82;21528;-77
2022/09/07 08:22:14;;;;;;;8.00;4.58;;;;;;;18.84;32.97;100071.11;1713202;83;21249;-77
2022/09/07 08:24:47;;;;;;;12.45;5.10;;;;;;;18.65;32.87;100067.63;1710737;83;20961;-75
2022/09/07 08:27:19;;;;;;;11.90;5.22;;;;;;;18.52;33.97;100063.27;1712846;82;21133;-76
2022/09/07 08:29:55;;;;;;;8.18;5.10;;;;;;;18.59;33.27;100056.52;1753376;80;21124;-75
2022/09/07 08:32:22;;;;;;;12.37;4.72;;;;;;;18.72;34.18;100062.26;1721322;82;20965;-75
2022/09/07 08:35:12;;;;;;;8.95;4.67;;;;;;;18.99;33.88;100058.59;1721508;82;21336;-83
2022/09/07 08:37:42;;;;;;;10.38;4.17;;;;;;;19.26;33.00;100051.27;1728788;81;21016;-86
2022/09/07 08:40:16;;;;;;;7.78;4.20;;;;;;;19.56;33.34;100048.81;1721297;81;21025;-77
2022/09/07 08:43:03;;;;;;;6.77;4.20;;;;;;;19.79;32.86;100055.27;1671087;83;20912;-81
2022/09/07 08:45:42;;;;;;;7.87;4.65;;;;;;;19.98;31.00;100051.69;1644282;84;21958;-79
2022/09/07 08:48:13;;;;;;;7.00;3.90;;;;;;;19.92;31.79;100043.98;1685399;83;21996;-83
2022/09/07 08:50:51;;;;;;;9.75;3.60;;;;;;;20.01;31.02;100044.57;1691898;83;21026;-78
2022/09/07 08:53:18;;;;;;;7.78;4.53;;;;;;;20.10;31.40;100043.77;1683581;83;21006;-83
2022/09/07 08:55:59;;;;;;;5.30;3.80;;;;;;;20.30;31.68;100045.92;1683876;84;21054;-81
2022/09/07 08:58:40;;;;;;;8.70;4.12;;;;;;;20.52;31.64;100033.22;1686539;83;21578;-84
2022/09/07 09:01:13;;;;;;;9.00;4.40;;;;;;;20.79;31.72;100036.89;1683667;84;20990;-84
2022/09/07 09:03:43;;;;;;;9.48;3.75;;;;;;;20.97;31.46;100023.42;1713591;82;21031;-78
2022/09/07 09:06:21;;;;;;;10.50;4.58;;;;;;;21.27;30.23;100021.33;1687522;83;22263;-82
2022/09/07 09:09:23;;;;;;;10.95;4.58;;;;;;;21.43;30.28;100016.35;1683857;82;21097;-89
2022/09/07 09:12:21;;;;;;;6.05;3.75;;;;;;;21.56;29.62;100017.73;1710891;83;21005;-78
2022/09/07 09:15:17;;;;;;;6.67;3.90;;;;;;;21.46;29.62;100021.19;1712137;82;21257;-77
2022/09/07 09:17:57;;;;;;;6.12;3.77;;;;;;;21.55;28.30;100009.14;1682347;83;20994;-79
2022/09/07 09:20:38;;;;;;;5.87;3.50;;;;;;;21.71;27.59;100013.15;1684190;83;21046;-81
2022/09/07 09:23:19;;;;;;;6.65;4.28;;;;;;;21.46;27.43;99996.64;1664709;84;21617;-83
2022/09/07 09:25:54;;;;;;;21.35;4.17;;;;;;;21.12;28.88;100006.31;1646224;85;21075;-90
2022/09/07 09:28:25;;;;;;;7.85;3.50;;;;;;;21.13;28.25;99994.56;1672738;85;21281;-91
2022/09/07 09:30:57;;;;;;;7.28;3.98;;;;;;;21.29;28.11;99998.02;1676352;84;21085;-86
2022/09/07 09:33:26;;;;;;;4.85;3.10;;;;;;;21.33;27.69;99994.70;1672101;85;21078;-81
2022/09/07 09:35:56;;;;;;;7.65;3.33;;;;;;;21.33;27.59;99994.70;1677120;85;21082;-79
2022/09/07 09:38:35;;;;;;;4.87;3.27;;;;;;;21.40;27.72;99989.18;1655077;85;21069;-80
2022/09/07 09:41:05;;;;;;;7.00;3.17;;;;;;;21.57;27.70;99980.24;1672235;84;21259;-76
2022/09/07 09:43:46;;;;;;;9.83;3.90;;;;;;;21.66;27.10;99968.19;1677030;84;21601;-76
2022/09/07 09:46:27;;;;;;;14.63;4.12;;;;;;;21.47;27.44;99970.32;1720787;82;21527;-77
2022/09/07 09:49:15;;;;;;;6.47;4.28;;;;;;;21.37;29.52;99967.00;1717166;82;21583;-75
2022/09/07 09:51:51;;;;;;;5.87;3.05;;;;;;;21.49;27.67;99965.97;1735803;81;21112;-75
2022/09/07 09:54:32;;;;;;;11.90;3.85;;;;;;;21.48;28.46;99965.75;1717428;81;21104;-74
2022/09/07 09:57:02;;;;;;;11.12;3.90;;;;;;;21.60;28.89;99965.52;1718040;81;21009;-76
2022/09/07 09:59:31;;;;;;;7.83;3.22;;;;;;;21.87;28.64;99959.85;1719172;82;21457;-77
2022/09/07 10:01:59;;;;;;;6.92;3.10;;;;;;;22.16;28.31;99962.37;1720142;81;21074;-79
2022/09/07 10:04:31;;;;;;;5.60;3.35;;;;;;;22.38;27.26;99955.22;1698077;82;21023;-78
2022/09/07 10:07:18;;;;;;;9.45;3.87;;;;;;;22.58;26.57;99954.37;1718531;83;21303;-77
2022/09/07 10:09:50;;;;;;;16.90;4.08;;;;;;;22.70;25.88;99963.06;1714603;82;21063;-76
2022/09/07 10:12:30;;;;;;;6.42;3.58;;;;;;;22.58;26.62;99955.77;1718569;82;21546;-75
2022/09/07 10:14:59;;;;;;;9.15;4.05;;;;;;;22.40;25.59;99949.23;1717572;83;21047;-75
2022/09/07 10:17:39;;;;;;;6.17;4.05;;;;;;;22.21;27.55;99946.65;1683337;84;21019;-80
2022/09/07 10:20:19;;;;;;;6.70;3.83;;;;;;;22.04;26.06;99953.66;1709340;82;21094;-83
2022/09/07 10:22:54;;;;;;;7.15;2.90;;;;;;;21.78;26.13;99949.56;1715343;82;21536;-83
2022/09/07 10:25:43;;;;;;;4.80;3.05;;;;;;;21.47;26.75;99950.17;1718368;81;21000;-85
2022/09/07 10:28:15;;;;;;;9.53;3.10;;;;;;;21.55;26.88;99944.89;1716873;82;21013;-87
2022/09/07 10:31:17;;;;;;;5.10;3.20;;;;;;;21.67;27.65;99939.06;1716912;82;21566;-88
2022/09/07 10:34:23;;;;;;;6.25;3.80;;;;;;;21.80;27.71;99935.42;1719143;82;21112;-85
2022/09/07 10:37:02;;;;;;;6.50;3.20;;;;;;;21.57;26.23;99936.94;1639838;82;21217;-90
2022/09/07 10:39:36;;;;;;;9.00;3.40;;;;;;;21.30;28.07;99936.22;1720010;81;21638;-74
2022/09/07 10:42:24;;;;;;;8.48;5.55;;;;;;;21.38;27.25;99930.11;1708574;82;21504;-74
2022/09/07 10:45:19;;;;;;;8.33;2.95;;;;;;;21.66;27.28;99933.27;1711924;81;21045;-74
2022/09/07 10:48:28;;;;;;;5.15;2.67;;;;;;;21.99;25.94;99927.42;1715297;82;21232;-76
2022/09/07 10:51:00;;;;;;;5.03;2.47;;;;;;;21.74;25.97;99934.16;1719973;81;21484;-79
2022/09/07 10:53:42;;;;;;;6.25;2.40;;;;;;;21.64;26.13;99928.65;1709889;81;21499;-76
2022/09/07 10:56:29;;;;;;;5.37;2.77;;;;;;;21.91;25.64;99923.77;1719071;81;21028;-76
2022/09/07 10:59:04;;;;;;;3.70;2.40;;;;;;;21.82;25.79;99924.67;1714700;81;21230;-76
2022/09/07 11:02:04;;;;;;;5.10;2.62;;;;;;;21.76;25.70;99922.00;1722074;81;21149;-81
2022/09/07 11:05:04;;;;;;;5.15;2.60;;;;;;;21.72;25.95;99913.58;1685470;83;21021;-78
2022/09/07 11:08:26;;;;;;;7.33;2.67;;;;;;;21.96;25.24;99908.62;1689570;82;21172;-73
2022/09/07 11:11:25;;;;;;;8.38;2.90;;;;;;;21.96;25.12;99903.03;1689499;82;21020;-72
2022/09/07 11:13:56;;;;;;;5.80;2.70;;;;;;;21.95;25.88;99905.64;1701151;81;21060;-79
2022/09/07 11:16:26;;;;;;;3.92;2.80;;;;;;;21.98;25.11;99900.06;1719251;82;21164;-89
2022/09/07 11:19:03;;;;;;;3.02;2.17;;;;;;;21.93;25.56;99896.24;1716814;82;21095;-77
2022/09/07 11:21:44;;;;;;;6.35;2.60;;;;;;;21.97;25.72;99893.45;1683110;82;20994;-78
2022/09/07 11:24:33;;;;;;;5.53;3.20;;;;;;;22.27;25.56;99892.78;1713409;82;21040;-77
2022/09/07 11:27:10;;;;;;;3.72;2.20;;;;;;;22.53;25.82;99888.98;1711789;82;20997;-81
2022/09/07 11:29:48;;;;;;;7.12;2.50;;;;;;;22.75;25.09;99880.14;1684182;83;21166;-83
2022/09/07 11:32:28;;;;;;;7.70;2.87;;;;;;;22.90;24.04;99877.67;1662479;84;21661;-80
2022/09/07 11:35:08;;;;;;;3.60;2.52;;;;;;;22.87;25.64;99879.86;1678010;84;21591;-82
2022/09/07 11:37:45;;;;;;;12.10;2.67;;;;;;;23.15;25.04;99873.59;1684999;84;21210;-74
2022/09/07 11:40:34;;;;;;;5.67;2.70;;;;;;;23.46;24.79;99871.33;1701809;81;21117;-76
2022/09/07 11:43:23;;;;;;;4.28;2.27;;;;;;;23.64;24.23;99873.02;1712101;81;21809;-72
2022/09/07 11:46:15;;;;;;;3.92;2.02;;;;;;;23.71;23.37;99867.41;1684379;84;21120;-73
2022/09/07 11:48:47;;;;;;;4.92;2.35;;;;;;;23.74;22.91;99872.02;1695006;82;21383;-79
2022/09/07 11:51:41;;;;;;;6.67;3.15;;;;;;;23.54;23.44;99859.78;1713992;82;21560;-82
2022/09/07 11:54:38;;;;;;;4.22;2.58;;;;;;;23.52;24.61;99862.75;1691344;82;21025;-72
2022/09/07 11:57:35;;;;;;;3.95;2.83;;;;;;;23.81;23.46;99856.63;1715530;82;21130;-76
2022/09/07 12:00:34;;;;;;;6.92;3.20;;;;;;;23.99;23.35;99851.84;1718609;82;21143;-78